createdAt,value
2023-04-12T00:01:16.014Z,99897.28
2023-04-12T00:04:18.810Z,99890.00
2023-04-12T00:07:24.960Z,99898.00
2023-04-12T00:10:27.560Z,99906.62
2023-04-12T00:13:30.508Z,99911.66
2023-04-12T00:16:33.237Z,99904.41
2023-04-12T00:19:35.517Z,99911.47
2023-04-12T00:22:44.043Z,99907.25
2023-04-12T00:25:46.450Z,99911.22
2023-04-12T00:28:49.098Z,99920.69
2023-04-12T00:31:51.318Z,99920.50
2023-04-12T00:34:53.900Z,99921.31
2023-04-12T00:37:56.525Z,99918.78
2023-04-12T00:40:59.441Z,99929.53
2023-04-12T00:44:01.657Z,99914.66
2023-04-12T00:47:05.536Z,99917.50
2023-04-12T00:50:09.129Z,99928.50
2023-04-12T00:53:13.606Z,99927.56
2023-04-12T00:56:16.139Z,99920.81
2023-04-12T00:59:18.636Z,99907.84
2023-04-12T01:02:20.978Z,99907.22
2023-04-12T01:05:24.670Z,99905.03
2023-04-12T01:08:34.096Z,99898.66
2023-04-12T01:11:47.667Z,99909.84
2023-04-12T01:15:12.681Z,99909.94
2023-04-12T01:18:22.112Z,99908.25
2023-04-12T01:21:35.944Z,99905.50
2023-04-12T01:25:01.759Z,99911.38
2023-04-12T01:28:05.554Z,99908.00
2023-04-12T01:31:09.032Z,99898.22
2023-04-12T01:34:13.671Z,99902.09
2023-04-12T01:37:19.799Z,99892.91
2023-04-12T01:40:22.584Z,99888.38
2023-04-12T01:43:25.230Z,99894.78
2023-04-12T01:46:27.603Z,99901.06
2023-04-12T01:49:37.792Z,99908.13
2023-04-12T01:52:46.500Z,99907.56
2023-04-12T01:55:50.785Z,99902.37
2023-04-12T01:58:53.940Z,99903.41
2023-04-12T02:01:57.095Z,99900.03
2023-04-12T02:05:01.692Z,99889.44
2023-04-12T02:08:04.641Z,99884.38
2023-04-12T02:11:14.732Z,99886.06
2023-04-12T02:14:19.565Z,99887.94
2023-04-12T02:17:21.945Z,99872.06
2023-04-12T02:20:25.938Z,99872.72
2023-04-12T02:23:28.091Z,99874.31
2023-04-12T02:26:30.578Z,99883.88
2023-04-12T02:29:32.769Z,99868.66
2023-04-12T02:32:44.018Z,99889.41
2023-04-12T02:35:47.721Z,99890.25
2023-04-12T02:38:51.659Z,99900.88
2023-04-12T02:41:54.312Z,99900.03
2023-04-12T02:44:56.766Z,99908.59
2023-04-12T02:47:59.458Z,99905.47
2023-04-12T02:51:03.157Z,99920.41
2023-04-12T02:54:06.081Z,99930.00
2023-04-12T02:57:11.485Z,99921.56
2023-04-12T03:00:17.948Z,99922.31
2023-04-12T03:03:21.798Z,99917.87
2023-04-12T03:06:26.071Z,99914.06
2023-04-12T03:09:28.847Z,99914.50
2023-04-12T03:12:31.112Z,99917.50
2023-04-12T03:15:35.550Z,99910.09
2023-04-12T03:18:38.186Z,99909.53
2023-04-12T03:21:40.823Z,99913.69
2023-04-12T03:24:44.691Z,99910.50
2023-04-12T03:27:48.603Z,99909.44
2023-04-12T03:30:51.451Z,99909.81
2023-04-12T03:33:54.539Z,99904.34
2023-04-12T03:36:57.428Z,99904.34
2023-04-12T03:40:00.806Z,99904.72
2023-04-12T03:43:03.098Z,99888.88
2023-04-12T03:46:06.553Z,99887.69
2023-04-12T03:49:09.116Z,99873.97
2023-04-12T03:52:11.970Z,99868.25
2023-04-12T03:55:18.227Z,99863.66
2023-04-12T03:58:22.415Z,99860.53
2023-04-12T04:01:24.706Z,99864.59
2023-04-12T04:04:28.271Z,99865.34
2023-04-12T04:07:32.700Z,99861.88
2023-04-12T04:10:36.216Z,99861.03
2023-04-12T04:13:40.089Z,99869.09
2023-04-12T04:16:43.084Z,99872.00
2023-04-12T04:19:45.868Z,99868.25
2023-04-12T04:22:48.890Z,99859.59
2023-04-12T04:25:53.451Z,99862.50
2023-04-12T04:28:56.394Z,99864.19
2023-04-12T04:31:59.318Z,99868.25
2023-04-12T04:35:02.043Z,99864.22
2023-04-12T04:38:05.596Z,99857.53
2023-04-12T04:41:09.200Z,99864.09
2023-04-12T04:44:13.403Z,99866.72
2023-04-12T04:47:17.297Z,99865.75
2023-04-12T04:50:24.143Z,99860.25
2023-04-12T04:53:27.022Z,99852.28
2023-04-12T04:56:30.174Z,99856.13
2023-04-12T04:59:33.704Z,99856.53
2023-04-12T05:02:40.131Z,99861.75
2023-04-12T05:05:42.682Z,99860.97
2023-04-12T05:08:45.392Z,99860.03
2023-04-12T05:11:49.503Z,99870.94
2023-04-12T05:14:52.027Z,99861.53
2023-04-12T05:17:54.709Z,99859.28
2023-04-12T05:21:02.615Z,99851.81
2023-04-12T05:24:07.200Z,99846.94
2023-04-12T05:27:09.806Z,99847.78
2023-04-12T05:30:12.594Z,99854.56
2023-04-12T05:33:15.825Z,99845.34
2023-04-12T05:36:18.504Z,99843.38
2023-04-12T05:39:21.239Z,99856.87
2023-04-12T05:42:24.022Z,99865.69
2023-04-12T05:45:27.627Z,99857.13
2023-04-12T05:48:35.091Z,99854.25
2023-04-12T05:51:41.424Z,99856.66
2023-04-12T05:54:46.162Z,99859.19
2023-04-12T05:57:49.130Z,99861.78
2023-04-12T06:00:54.338Z,99866.06
2023-04-12T06:03:58.294Z,99879.31
2023-04-12T06:07:01.968Z,99872.03
2023-04-12T06:10:07.375Z,99877.19
2023-04-12T06:13:10.155Z,99883.09
2023-04-12T06:16:15.635Z,99886.97
2023-04-12T06:19:18.210Z,99882.25
2023-04-12T06:22:20.882Z,99883.69
2023-04-12T06:25:23.280Z,99882.09
2023-04-12T06:28:26.482Z,99889.41
2023-04-12T06:31:28.996Z,99890.84
2023-04-12T06:34:33.972Z,99888.00
2023-04-12T06:37:37.090Z,99893.66
2023-04-12T06:40:39.939Z,99889.66
2023-04-12T06:43:42.175Z,99894.87
2023-04-12T06:46:44.897Z,99894.13
2023-04-12T06:49:48.233Z,99890.69
2023-04-12T06:52:50.834Z,99888.06
2023-04-12T06:55:53.867Z,99890.06
2023-04-12T06:58:57.016Z,99895.94
2023-04-12T07:01:59.371Z,99900.59
2023-04-12T07:05:03.215Z,99891.75
2023-04-12T07:08:05.629Z,99885.28
2023-04-12T07:11:19.992Z,99890.38
2023-04-12T07:14:24.345Z,99885.69
2023-04-12T07:17:27.162Z,99900.78
2023-04-12T07:20:29.486Z,99895.56
2023-04-12T07:23:32.099Z,99894.53
2023-04-12T07:26:34.356Z,99886.87
2023-04-12T07:29:37.351Z,99884.91
2023-04-12T07:32:39.562Z,99876.38
2023-04-12T07:35:42.768Z,99880.38
2023-04-12T07:38:44.910Z,99887.69
2023-04-12T07:41:48.381Z,99880.31
2023-04-12T07:44:50.743Z,99877.56
2023-04-12T07:47:53.278Z,99879.97
2023-04-12T07:50:55.581Z,99884.56
2023-04-12T07:53:58.523Z,99887.94
2023-04-12T07:57:05.465Z,99889.69
2023-04-12T08:00:09.149Z,99885.81
2023-04-12T08:03:17.533Z,99890.88
2023-04-12T08:06:20.219Z,99886.44
2023-04-12T08:09:23.583Z,99892.69
2023-04-12T08:12:26.283Z,99883.94
2023-04-12T08:15:28.413Z,99885.81
2023-04-12T08:18:30.926Z,99881.13
2023-04-12T08:21:33.847Z,99881.50
2023-04-12T08:24:36.360Z,99893.47
2023-04-12T08:27:43.192Z,99891.91
2023-04-12T08:30:45.704Z,99890.84
2023-04-12T08:33:48.073Z,99894.87
2023-04-12T08:36:50.583Z,99894.75
2023-04-12T08:39:52.859Z,99888.34
2023-04-12T08:42:57.567Z,99889.56
2023-04-12T08:46:00.898Z,99885.19
2023-04-12T08:49:03.427Z,99882.62
2023-04-12T08:52:07.517Z,99883.53
2023-04-12T08:55:12.714Z,99878.53
2023-04-12T08:58:15.655Z,99886.25
2023-04-12T09:01:21.647Z,99878.53
2023-04-12T09:04:26.220Z,99875.88
2023-04-12T09:07:30.605Z,99874.50
2023-04-12T09:10:36.423Z,99870.81
2023-04-12T09:13:39.616Z,99862.22
2023-04-12T09:16:42.271Z,99867.72
2023-04-12T09:19:44.812Z,99863.50
2023-04-12T09:22:47.659Z,99866.88
2023-04-12T09:25:53.721Z,99855.41
2023-04-12T09:28:57.498Z,99856.78
2023-04-12T09:32:03.384Z,99853.00
2023-04-12T09:35:06.389Z,99851.34
2023-04-12T09:38:10.359Z,99846.97
2023-04-12T09:41:20.233Z,99843.44
2023-04-12T09:44:30.570Z,99846.75
2023-04-12T09:47:40.411Z,99848.78
2023-04-12T09:50:43.596Z,99845.44
2023-04-12T09:53:48.061Z,99831.88
2023-04-12T09:56:51.126Z,99835.38
2023-04-12T09:59:56.861Z,99830.34
2023-04-12T10:02:59.939Z,99826.78
2023-04-12T10:06:04.715Z,99826.00
2023-04-12T10:09:08.654Z,99825.66
2023-04-12T10:12:11.189Z,99817.97
2023-04-12T10:15:17.225Z,99825.03
2023-04-12T10:18:21.969Z,99830.88
2023-04-12T10:21:24.415Z,99818.44
2023-04-12T10:24:28.892Z,99822.50
2023-04-12T10:27:32.059Z,99813.56
2023-04-12T10:30:34.427Z,99827.47
2023-04-12T10:33:38.229Z,99813.34
2023-04-12T10:37:00.493Z,99812.44
2023-04-12T10:43:19.146Z,99803.03
2023-04-12T10:46:41.082Z,99791.19
2023-04-12T10:50:21.700Z,99793.56
2023-04-12T10:53:25.266Z,99793.47
2023-04-12T10:56:33.961Z,99786.81
2023-04-12T10:59:57.199Z,99791.81
2023-04-12T11:03:12.703Z,99792.75
2023-04-12T11:06:27.072Z,99781.72
2023-04-12T11:09:34.361Z,99779.16
2023-04-12T11:12:38.810Z,99786.47
2023-04-12T11:15:41.428Z,99789.22
2023-04-12T11:18:47.196Z,99785.97
2023-04-12T11:21:51.461Z,99772.72
2023-04-12T11:24:56.479Z,99768.56
2023-04-12T11:28:00.917Z,99762.41
2023-04-12T11:31:03.989Z,99765.19
2023-04-12T11:34:08.671Z,99762.16
2023-04-12T11:37:11.175Z,99761.81
2023-04-12T11:40:14.545Z,99751.72
2023-04-12T11:43:22.716Z,99758.63
2023-04-12T11:46:25.536Z,99768.56
2023-04-12T11:49:28.362Z,99749.84
2023-04-12T11:52:32.323Z,99749.72
2023-04-12T11:55:34.480Z,99753.38
2023-04-12T11:58:37.054Z,99745.28
2023-04-12T12:01:39.384Z,99743.72
2023-04-12T12:04:47.635Z,99729.09
2023-04-12T12:07:52.567Z,99733.84
2023-04-12T12:11:40.028Z,99722.59
2023-04-12T12:14:21.953Z,99731.38
2023-04-12T12:17:24.370Z,99725.94
2023-04-12T12:20:29.951Z,99716.22
2023-04-12T12:23:33.541Z,99713.66
2023-04-12T12:26:35.943Z,99714.06
2023-04-12T12:29:38.719Z,99719.72
2023-04-12T12:32:41.034Z,99705.59
2023-04-12T12:35:43.629Z,99701.88
2023-04-12T12:38:45.848Z,99691.84
2023-04-12T12:41:55.513Z,99699.47
2023-04-12T12:44:57.634Z,99684.38
2023-04-12T12:48:04.394Z,99682.59
2023-04-12T12:51:06.825Z,99680.50
2023-04-12T12:54:09.671Z,99677.88
2023-04-12T12:57:12.359Z,99675.28
2023-04-12T13:00:16.393Z,99685.59
2023-04-12T13:03:18.861Z,99680.44
2023-04-12T13:06:22.135Z,99675.44
2023-04-12T13:09:24.275Z,99680.37
2023-04-12T13:12:27.062Z,99671.06
2023-04-12T13:15:29.855Z,99676.84
2023-04-12T13:18:32.458Z,99666.56
2023-04-12T13:21:34.590Z,99669.44
2023-04-12T13:24:37.102Z,99660.72
2023-04-12T13:27:39.565Z,99661.19
2023-04-12T13:30:42.498Z,99666.84
2023-04-12T13:33:44.794Z,99652.59
2023-04-12T13:36:47.839Z,99658.97
2023-04-12T13:39:53.217Z,99657.81
2023-04-12T13:42:55.703Z,99645.91
2023-04-12T13:45:57.956Z,99639.81
2023-04-12T13:49:00.663Z,99646.22
2023-04-12T13:52:03.162Z,99639.50
2023-04-12T13:55:08.314Z,99640.50
2023-04-12T13:58:10.704Z,99647.22
2023-04-12T14:01:13.554Z,99632.97
2023-04-12T14:04:16.102Z,99646.56
2023-04-12T14:07:18.580Z,99639.25
2023-04-12T14:10:21.077Z,99634.34
2023-04-12T14:13:24.116Z,99631.28
2023-04-12T14:16:26.606Z,99629.97
2023-04-12T14:19:28.882Z,99626.75
2023-04-12T14:22:31.464Z,99631.03
2023-04-12T14:25:36.949Z,99622.69
2023-04-12T14:28:39.913Z,99627.09
2023-04-12T14:31:42.296Z,99618.06
2023-04-12T14:34:45.014Z,99627.37
2023-04-12T14:37:47.985Z,99626.66
2023-04-12T14:40:51.574Z,99630.13
2023-04-12T14:43:53.811Z,99629.78
2023-04-12T14:46:56.742Z,99621.19
2023-04-12T14:49:58.961Z,99616.19
2023-04-12T14:53:01.411Z,99607.41
2023-04-12T14:56:03.663Z,99607.34
2023-04-12T14:59:06.159Z,99612.06
2023-04-12T15:02:08.779Z,99609.22
2023-04-12T15:05:11.706Z,99604.31
2023-04-12T15:08:14.033Z,99618.75
2023-04-12T15:11:19.255Z,99615.03
2023-04-12T15:14:22.809Z,99614.56
2023-04-12T15:17:25.483Z,99615.34
2023-04-12T15:20:27.721Z,99618.44
2023-04-12T15:23:30.458Z,99624.16
2023-04-12T15:26:35.040Z,99610.63
2023-04-12T15:29:37.599Z,99611.63
2023-04-12T15:32:42.657Z,99606.75
2023-04-12T15:35:46.001Z,99613.25
2023-04-12T15:38:48.314Z,99614.16
2023-04-12T15:41:51.091Z,99608.31
2023-04-12T15:44:53.350Z,99624.25
2023-04-12T15:47:56.170Z,99623.94
2023-04-12T15:51:00.253Z,99622.25
2023-04-12T15:54:02.844Z,99618.22
2023-04-12T15:57:09.460Z,99617.06
2023-04-12T16:00:20.668Z,99625.16
2023-04-12T16:03:24.698Z,99620.03
2023-04-12T16:06:26.820Z,99615.88
2023-04-12T16:09:29.993Z,99620.16
2023-04-12T16:12:32.298Z,99618.31
2023-04-12T16:15:34.832Z,99622.28
2023-04-12T16:18:36.999Z,99613.31
2023-04-12T16:24:43.747Z,99610.06
2023-04-12T16:27:46.221Z,99603.78
2023-04-12T16:30:50.145Z,99591.38
2023-04-12T16:33:53.591Z,99594.44
2023-04-12T16:36:56.261Z,99596.37
2023-04-12T16:39:58.854Z,99602.00
2023-04-12T16:43:01.123Z,99599.06
2023-04-12T16:46:05.150Z,99593.66
2023-04-12T16:49:07.340Z,99592.06
2023-04-12T16:52:10.072Z,99588.31
2023-04-12T16:55:12.692Z,99588.53
2023-04-12T16:58:15.714Z,99589.28
2023-04-12T17:01:18.278Z,99587.94
2023-04-12T17:04:20.907Z,99597.47
2023-04-12T17:07:23.104Z,99599.75
2023-04-12T17:10:26.697Z,99589.03
2023-04-12T17:13:30.275Z,99590.09
2023-04-12T17:16:32.780Z,99593.84
2023-04-12T17:19:35.080Z,99588.72
2023-04-12T17:22:38.482Z,99590.66
2023-04-12T17:25:41.430Z,99594.41
2023-04-12T17:28:44.944Z,99597.00
2023-04-12T17:31:50.689Z,99610.50
2023-04-12T17:34:55.647Z,99595.28
2023-04-12T17:37:57.857Z,99592.56
2023-04-12T17:41:00.411Z,99597.56
2023-04-12T17:44:02.609Z,99588.78
2023-04-12T17:47:05.059Z,99586.00
2023-04-12T17:50:11.532Z,99589.47
2023-04-12T17:53:14.083Z,99591.75
2023-04-12T17:56:18.704Z,99595.94
2023-04-12T17:59:21.129Z,99586.03
2023-04-12T18:02:23.459Z,99591.88
2023-04-12T18:05:26.252Z,99595.94
2023-04-12T18:08:28.450Z,99599.97
2023-04-12T18:11:31.138Z,99602.88
2023-04-12T18:14:33.368Z,99607.75
2023-04-12T18:17:36.000Z,99598.00
2023-04-12T18:20:38.211Z,99603.00
2023-04-12T18:23:40.726Z,99597.25
2023-04-12T18:26:44.082Z,99590.25
2023-04-12T18:29:46.494Z,99604.16
2023-04-12T18:32:48.786Z,99598.44
2023-04-12T18:35:51.613Z,99602.59
2023-04-12T18:38:53.776Z,99605.66
2023-04-12T18:41:57.117Z,99606.75
2023-04-12T18:44:59.333Z,99611.84
2023-04-12T18:48:03.319Z,99611.28
2023-04-12T18:51:05.542Z,99610.63
2023-04-12T18:54:12.803Z,99610.31
2023-04-12T18:57:15.643Z,99625.50
2023-04-12T19:00:19.701Z,99625.50
2023-04-12T19:03:22.098Z,99621.84
2023-04-12T19:06:24.790Z,99617.66
2023-04-12T19:09:27.389Z,99620.94
2023-04-12T19:12:30.350Z,99625.66
2023-04-12T19:15:32.647Z,99621.59
2023-04-12T19:18:35.347Z,99619.72
2023-04-12T19:21:37.812Z,99619.50
2023-04-12T19:24:40.301Z,99626.72
2023-04-12T19:27:42.435Z,99626.72
2023-04-12T19:30:44.872Z,99623.50
2023-04-12T19:33:47.021Z,99624.59
2023-04-12T19:36:49.595Z,99626.94
2023-04-12T19:39:51.769Z,99622.72
2023-04-12T19:42:54.294Z,99631.38
2023-04-12T19:45:57.626Z,99618.53
2023-04-12T19:49:00.573Z,99618.81
2023-04-12T19:52:05.440Z,99622.44
2023-04-12T19:55:09.125Z,99622.78
2023-04-12T19:58:11.556Z,99614.38
2023-04-12T20:01:15.979Z,99612.22
2023-04-12T20:04:21.066Z,99607.44
2023-04-12T20:07:23.304Z,99606.25
2023-04-12T20:10:25.822Z,99606.28
2023-04-12T20:13:30.955Z,99605.50
2023-04-12T20:16:34.975Z,99606.81
2023-04-12T20:19:37.620Z,99611.38
2023-04-12T20:22:48.863Z,99593.59
2023-04-12T20:25:51.274Z,99598.41
2023-04-12T20:28:56.672Z,99598.88
2023-04-12T20:31:59.941Z,99596.75
2023-04-12T20:35:03.747Z,99596.50
2023-04-12T20:38:07.066Z,99601.56
2023-04-12T20:41:10.712Z,99599.63
2023-04-12T20:44:13.019Z,99598.78
2023-04-12T20:47:16.118Z,99603.97
2023-04-12T20:50:22.783Z,99592.56
2023-04-12T20:53:25.602Z,99587.50
2023-04-12T20:56:29.134Z,99588.22
2023-04-12T20:59:33.069Z,99589.91
2023-04-12T21:02:36.213Z,99595.06
2023-04-12T21:05:40.071Z,99584.13
2023-04-12T21:08:43.366Z,99576.66
2023-04-12T21:11:46.434Z,99577.75
2023-04-12T21:14:51.135Z,99572.97
2023-04-12T21:17:54.203Z,99568.91
2023-04-12T21:20:59.229Z,99572.63
2023-04-12T21:24:03.535Z,99580.16
2023-04-12T21:27:07.426Z,99580.88
2023-04-12T21:30:14.008Z,99584.59
2023-04-12T21:33:24.466Z,99585.69
2023-04-12T21:36:28.552Z,99585.81
2023-04-12T21:39:30.981Z,99575.25
2023-04-12T21:42:34.508Z,99579.44
2023-04-12T21:45:36.875Z,99580.50
2023-04-12T21:48:39.306Z,99570.66
2023-04-12T21:51:41.552Z,99556.75
2023-04-12T21:54:48.664Z,99551.47
2023-04-12T21:57:51.071Z,99552.53
2023-04-12T22:00:53.618Z,99546.88
2023-04-12T22:03:57.264Z,99545.44
2023-04-12T22:07:02.037Z,99546.00
2023-04-12T22:10:05.218Z,99543.28
2023-04-12T22:13:10.226Z,99546.50
2023-04-12T22:16:14.020Z,99540.03
2023-04-12T22:19:17.079Z,99536.34
2023-04-12T22:22:19.498Z,99541.97
2023-04-12T22:25:21.910Z,99549.66
2023-04-12T22:28:24.606Z,99537.44
2023-04-12T22:31:27.533Z,99533.00
2023-04-12T22:34:30.030Z,99534.16
2023-04-12T22:37:33.544Z,99535.13
2023-04-12T22:40:38.002Z,99528.16
2023-04-12T22:43:42.705Z,99526.59
2023-04-12T22:46:48.429Z,99522.28
2023-04-12T22:49:50.878Z,99525.62
2023-04-12T22:52:54.420Z,99522.31
2023-04-12T22:55:57.179Z,99531.78
2023-04-12T22:58:59.907Z,99533.22
2023-04-12T23:02:02.298Z,99529.06
2023-04-12T23:05:05.534Z,99538.19
2023-04-12T23:08:09.181Z,99522.44
2023-04-12T23:11:11.663Z,99523.78
2023-04-12T23:14:17.686Z,99527.13
2023-04-12T23:17:20.198Z,99524.62
2023-04-12T23:20:23.055Z,99523.78
2023-04-12T23:23:26.313Z,99526.53
2023-04-12T23:26:28.587Z,99516.69
2023-04-12T23:29:31.179Z,99521.50
2023-04-12T23:32:33.363Z,99516.06
2023-04-12T23:35:39.176Z,99514.38
2023-04-12T23:38:44.399Z,99508.50
2023-04-12T23:41:47.007Z,99509.81
2023-04-12T23:44:49.741Z,99504.66
2023-04-12T23:47:52.518Z,99500.19
2023-04-12T23:50:54.858Z,99502.72
2023-04-12T23:53:57.795Z,99491.78
2023-04-12T23:57:01.296Z,99491.53
